createdAt,value
2022-07-25T00:03:21.926Z,24.12
2022-07-25T00:07:23.747Z,23.98
2022-07-25T00:11:25.598Z,23.95
2022-07-25T00:15:27.570Z,23.76
2022-07-25T00:19:29.474Z,23.58
2022-07-25T00:23:32.021Z,23.40
2022-07-25T00:27:33.850Z,23.41
2022-07-25T00:31:35.807Z,23.38
2022-07-25T00:35:37.952Z,23.36
2022-07-25T00:39:39.767Z,23.37
2022-07-25T00:43:45.546Z,23.29
2022-07-25T00:47:47.483Z,23.22
2022-07-25T00:51:49.905Z,23.16
2022-07-25T00:55:52.404Z,23.06
2022-07-25T00:59:54.450Z,22.96
2022-07-25T01:03:56.322Z,22.78
2022-07-25T01:07:58.453Z,22.62
2022-07-25T01:12:00.541Z,22.39
2022-07-25T01:16:02.644Z,22.39
2022-07-25T01:20:06.687Z,22.24
2022-07-25T01:24:09.552Z,22.07
2022-07-25T01:28:11.995Z,21.98
2022-07-25T01:32:14.077Z,21.78
2022-07-25T01:36:16.148Z,21.87
2022-07-25T01:40:18.038Z,21.96
2022-07-25T01:44:19.947Z,22.02
2022-07-25T01:48:22.088Z,21.97
2022-07-25T01:52:23.950Z,21.72
2022-07-25T01:56:25.781Z,21.44
2022-07-25T02:00:27.637Z,21.18
2022-07-25T02:04:29.610Z,21.11
2022-07-25T02:08:35.117Z,21.16
2022-07-25T02:12:38.707Z,21.11
2022-07-25T02:16:40.633Z,21.11
2022-07-25T02:20:43.067Z,21.06
2022-07-25T02:24:46.071Z,20.97
2022-07-25T02:28:49.767Z,21.01
2022-07-25T02:32:51.881Z,21.01
2022-07-25T02:36:54.970Z,21.04
2022-07-25T02:40:56.901Z,21.06
2022-07-25T02:50:26.828Z,20.93
2022-07-25T02:54:29.160Z,20.96
2022-07-25T02:58:33.497Z,20.72
2022-07-25T03:02:36.501Z,20.74
2022-07-25T03:06:40.567Z,20.48
2022-07-25T03:10:42.933Z,20.22
2022-07-25T03:14:44.848Z,20.20
2022-07-25T03:18:46.983Z,19.85
2022-07-25T03:22:49.189Z,19.98
2022-07-25T03:26:51.178Z,20.07
2022-07-25T03:30:53.081Z,20.12
2022-07-25T03:34:54.950Z,20.01
2022-07-25T03:38:57.760Z,20.07
2022-07-25T03:42:59.595Z,19.92
2022-07-25T03:47:01.498Z,19.79
2022-07-25T03:51:06.850Z,19.92
2022-07-25T03:55:10.868Z,20.06
2022-07-25T03:59:14.109Z,20.19
2022-07-25T04:03:15.965Z,20.29
2022-07-25T04:07:18.050Z,20.36
2022-07-25T04:11:19.986Z,20.38
2022-07-25T04:15:22.067Z,20.28
2022-07-25T04:19:28.837Z,20.31
2022-07-25T04:23:31.564Z,20.43
2022-07-25T04:27:33.460Z,20.53
2022-07-25T04:31:35.455Z,20.56
2022-07-25T04:35:37.377Z,20.64
2022-07-25T04:39:39.391Z,20.68
2022-07-25T04:43:46.360Z,20.54
2022-07-25T04:47:50.305Z,20.60
2022-07-25T04:51:52.123Z,20.71
2022-07-25T04:55:53.982Z,20.70
2022-07-25T04:59:56.974Z,20.69
2022-07-25T05:03:58.897Z,20.58
2022-07-25T05:08:01.160Z,20.66
2022-07-25T05:12:03.474Z,20.65
2022-07-25T05:20:43.010Z,20.79
2022-07-25T05:24:44.888Z,21.02
2022-07-25T05:28:46.742Z,21.22
2022-07-25T05:32:48.598Z,21.46
2022-07-25T05:36:50.711Z,21.72
2022-07-25T05:40:52.695Z,21.93
2022-07-25T05:44:55.121Z,22.10
2022-07-25T05:48:56.974Z,22.40
2022-07-25T05:52:58.842Z,22.55
2022-07-25T05:57:01.363Z,22.78
2022-07-25T06:01:03.895Z,22.87
2022-07-25T06:05:05.783Z,23.13
2022-07-25T06:09:08.633Z,23.35
2022-07-25T06:13:10.959Z,23.52
2022-07-25T06:17:12.810Z,23.65
2022-07-25T06:21:14.814Z,23.84
2022-07-25T06:25:17.115Z,24.04
2022-07-25T06:29:19.036Z,24.14
2022-07-25T06:33:20.914Z,24.37
2022-07-25T06:37:22.828Z,24.42
2022-07-25T06:41:24.897Z,24.49
2022-07-25T06:45:26.814Z,24.71
2022-07-25T06:49:28.671Z,25.01
2022-07-25T06:53:30.681Z,25.20
2022-07-25T06:57:32.621Z,25.26
2022-07-25T07:01:34.532Z,25.36
2022-07-25T07:05:37.255Z,25.44
2022-07-25T07:09:39.117Z,25.65
2022-07-25T07:13:41.116Z,25.74
2022-07-25T07:17:43.601Z,25.82
2022-07-25T07:21:45.811Z,25.89
2022-07-25T07:25:48.743Z,26.00
2022-07-25T07:29:50.740Z,26.12
2022-07-25T07:33:52.816Z,26.30
2022-07-25T07:37:56.757Z,26.38
2022-07-25T07:41:58.786Z,26.52
2022-07-25T07:46:01.650Z,26.56
2022-07-25T07:50:04.182Z,26.69
2022-07-25T07:54:27.814Z,26.90
2022-07-25T07:58:29.888Z,27.01
2022-07-25T08:02:32.020Z,27.10
2022-07-25T08:06:34.134Z,27.36
2022-07-25T08:10:37.398Z,27.39
2022-07-25T08:14:39.285Z,27.56
2022-07-25T08:18:41.305Z,27.65
2022-07-25T08:22:44.591Z,27.78
2022-07-25T08:26:46.483Z,27.99
2022-07-25T08:30:48.489Z,28.24
2022-07-25T08:34:50.392Z,28.47
2022-07-25T08:38:52.322Z,28.64
2022-07-25T08:42:58.546Z,28.93
2022-07-25T08:47:00.579Z,28.95
2022-07-25T08:51:02.659Z,29.14
2022-07-25T08:55:07.143Z,29.29
2022-07-25T08:59:10.222Z,29.25
2022-07-25T09:03:12.788Z,29.33
2022-07-25T09:07:14.742Z,29.62
2022-07-25T09:11:25.710Z,29.67
2022-07-25T09:15:31.006Z,29.72
2022-07-25T09:19:33.253Z,29.78
2022-07-25T09:23:36.529Z,30.01
2022-07-25T09:27:38.452Z,30.21
2022-07-25T09:31:41.885Z,30.46
2022-07-25T09:35:44.000Z,30.65
2022-07-25T09:39:48.322Z,30.71
2022-07-25T09:43:50.870Z,30.72
2022-07-25T09:47:56.685Z,30.74
2022-07-25T09:51:58.807Z,30.80
2022-07-25T09:56:00.890Z,30.87
2022-07-25T10:00:04.067Z,30.94
2022-07-25T10:04:21.817Z,31.27
2022-07-25T10:08:24.185Z,31.19
2022-07-25T10:12:26.195Z,31.33
2022-07-25T10:16:28.107Z,31.58
2022-07-25T10:20:30.111Z,31.63
2022-07-25T10:24:35.707Z,31.69
2022-07-25T10:28:42.407Z,31.78
2022-07-25T10:32:49.588Z,32.00
2022-07-25T10:36:57.235Z,32.20
2022-07-25T10:41:04.361Z,32.49
2022-07-25T10:45:09.529Z,32.68
2022-07-25T10:49:31.170Z,32.78
2022-07-25T10:53:38.347Z,32.59
2022-07-25T10:57:55.022Z,32.65
2022-07-25T11:02:03.209Z,33.07
2022-07-25T11:06:05.414Z,33.21
2022-07-25T11:10:07.552Z,33.34
2022-07-25T11:14:16.499Z,33.54
2022-07-25T11:18:30.551Z,33.80
2022-07-25T11:22:40.060Z,33.82
2022-07-25T11:26:46.099Z,33.76
2022-07-25T11:30:48.022Z,33.76
2022-07-25T11:34:53.003Z,34.03
2022-07-25T11:38:55.118Z,34.07
2022-07-25T11:42:59.636Z,34.23
2022-07-25T11:47:03.083Z,34.22
2022-07-25T11:51:17.980Z,34.15
2022-07-25T11:55:28.506Z,34.43
2022-07-25T11:59:30.453Z,34.64
2022-07-25T12:03:37.641Z,34.80
2022-07-25T12:07:42.013Z,35.02
2022-07-25T12:11:44.430Z,34.80
2022-07-25T12:15:46.359Z,35.06
2022-07-25T12:19:48.517Z,35.41
2022-07-25T12:23:50.491Z,35.50
2022-07-25T12:27:52.474Z,35.69
2022-07-25T12:31:54.371Z,35.78
2022-07-25T12:35:56.549Z,35.71
2022-07-25T12:39:58.557Z,35.95
2022-07-25T12:44:02.555Z,35.41
2022-07-25T12:48:05.263Z,35.50
2022-07-25T12:52:25.725Z,35.83
2022-07-25T12:56:27.758Z,36.07
2022-07-25T13:00:30.010Z,36.34
2022-07-25T13:04:32.324Z,36.23
2022-07-25T13:09:24.668Z,36.18
2022-07-25T13:13:27.071Z,36.17
2022-07-25T13:17:29.064Z,36.41
2022-07-25T13:21:33.795Z,36.40
2022-07-25T13:25:36.507Z,36.71
2022-07-25T13:29:38.438Z,36.63
2022-07-25T13:33:41.050Z,36.45
2022-07-25T13:37:42.985Z,36.45
2022-07-25T13:41:45.059Z,36.78
2022-07-25T13:45:47.170Z,37.31
2022-07-25T13:49:49.556Z,37.69
2022-07-25T13:53:51.975Z,37.91
2022-07-25T13:57:54.068Z,38.07
2022-07-25T14:01:56.298Z,38.14
2022-07-25T14:05:58.409Z,38.10
2022-07-25T14:10:00.963Z,37.57
2022-07-25T14:14:03.093Z,37.19
2022-07-25T14:18:05.811Z,37.12
2022-07-25T14:22:08.367Z,37.12
2022-07-25T14:26:10.346Z,36.10
2022-07-25T14:30:12.654Z,35.92
2022-07-25T14:34:15.742Z,35.73
2022-07-25T14:38:17.666Z,36.05
2022-07-25T14:42:19.745Z,36.33
2022-07-25T14:46:21.790Z,36.61
2022-07-25T14:50:24.329Z,36.92
2022-07-25T14:54:28.426Z,36.88
2022-07-25T14:58:30.720Z,36.60
2022-07-25T15:02:32.703Z,36.53
2022-07-25T15:06:34.712Z,36.80
2022-07-25T15:10:36.728Z,37.32
2022-07-25T15:14:38.697Z,37.49
2022-07-25T15:19:05.298Z,38.22
2022-07-25T15:23:03.013Z,37.37
2022-07-25T15:27:05.937Z,36.63
2022-07-25T15:31:08.197Z,37.98
2022-07-25T15:35:10.453Z,37.66
2022-07-25T15:39:12.549Z,37.13
2022-07-25T15:43:35.117Z,38.61
2022-07-25T15:47:40.581Z,38.31
2022-07-25T15:51:42.787Z,38.98
2022-07-25T15:55:44.844Z,38.70
2022-07-25T15:59:46.887Z,38.91
2022-07-25T16:03:49.006Z,37.98
2022-07-25T16:07:51.079Z,37.97
2022-07-25T16:11:53.010Z,38.01
2022-07-25T16:15:55.966Z,37.59
2022-07-25T16:19:58.459Z,37.69
2022-07-25T16:24:00.530Z,37.99
2022-07-25T16:28:02.664Z,37.92
2022-07-25T16:32:05.495Z,37.35
2022-07-25T16:36:07.699Z,37.63
2022-07-25T16:40:09.776Z,37.16
2022-07-25T16:44:12.065Z,36.84
2022-07-25T16:48:14.141Z,37.14
2022-07-25T16:52:16.381Z,37.64
2022-07-25T16:56:18.630Z,37.65
2022-07-25T17:00:20.980Z,37.15
2022-07-25T17:04:23.045Z,36.99
2022-07-25T17:08:26.375Z,36.37
2022-07-25T17:12:29.034Z,36.41
2022-07-25T17:16:31.775Z,36.23
2022-07-25T17:20:33.958Z,37.06
2022-07-25T17:24:37.862Z,36.40
2022-07-25T17:28:40.044Z,36.26
2022-07-25T17:32:42.101Z,36.14
2022-07-25T17:36:44.330Z,36.28
2022-07-25T17:40:46.345Z,35.61
2022-07-25T17:44:49.330Z,35.34
2022-07-25T17:48:51.459Z,35.08
2022-07-25T17:52:54.487Z,34.96
2022-07-25T17:57:03.057Z,35.13
2022-07-25T18:01:10.693Z,34.81
2022-07-25T18:05:13.957Z,34.36
2022-07-25T18:09:16.366Z,33.82
2022-07-25T18:13:19.596Z,33.53
2022-07-25T18:17:22.073Z,33.30
2022-07-25T18:21:24.551Z,32.91
2022-07-25T18:25:26.501Z,32.37
2022-07-25T18:29:28.456Z,31.76
2022-07-25T18:33:34.395Z,31.50
2022-07-25T18:37:37.077Z,31.25
2022-07-25T18:41:39.470Z,31.19
2022-07-25T18:45:46.738Z,31.00
2022-07-25T18:49:50.374Z,30.76
2022-07-25T18:54:03.791Z,30.54
2022-07-25T18:58:07.835Z,30.27
2022-07-25T19:02:10.526Z,30.07
2022-07-25T19:06:20.599Z,30.01
2022-07-25T19:10:24.346Z,29.98
2022-07-25T19:14:28.633Z,29.92
2022-07-25T19:18:30.830Z,29.95
2022-07-25T19:22:42.768Z,29.78
2022-07-25T19:26:48.068Z,29.56
2022-07-25T19:30:55.119Z,29.49
2022-07-25T19:34:57.524Z,29.50
2022-07-25T19:38:59.553Z,29.40
2022-07-25T19:43:05.181Z,29.30
2022-07-25T19:47:11.643Z,29.26
2022-07-25T19:51:17.870Z,29.20
2022-07-25T19:55:22.536Z,28.99
2022-07-25T19:59:25.691Z,28.97
2022-07-25T20:03:27.784Z,28.92
2022-07-25T20:07:29.967Z,28.84
2022-07-25T20:11:44.440Z,28.67
2022-07-25T20:16:06.205Z,28.67
2022-07-25T20:20:12.476Z,28.59
2022-07-25T20:24:20.889Z,28.51
2022-07-25T20:28:27.428Z,28.47
2022-07-25T20:32:31.212Z,28.40
2022-07-25T20:36:35.507Z,28.34
2022-07-25T20:40:49.520Z,28.33
2022-07-25T20:44:53.127Z,28.25
2022-07-25T20:48:55.164Z,28.20
2022-07-25T20:52:57.901Z,27.94
2022-07-25T20:57:00.105Z,27.86
2022-07-25T21:01:03.320Z,27.78
2022-07-25T21:05:05.539Z,27.61
2022-07-25T21:09:08.696Z,27.61
2022-07-25T21:13:11.266Z,27.54
2022-07-25T21:17:13.992Z,27.53
2022-07-25T21:21:16.767Z,27.48
2022-07-25T21:25:18.894Z,27.35
2022-07-25T21:29:20.877Z,27.30
2022-07-25T21:33:25.430Z,27.25
2022-07-25T21:37:27.717Z,27.13
2022-07-25T21:41:30.248Z,27.09
2022-07-25T21:45:32.188Z,26.96
2022-07-25T21:49:54.452Z,26.90
2022-07-25T21:53:59.075Z,26.77
2022-07-25T21:58:01.259Z,26.72
2022-07-25T22:02:04.788Z,26.65
2022-07-25T22:06:06.893Z,26.64
2022-07-25T22:10:10.420Z,26.53
2022-07-25T22:14:12.386Z,26.34
2022-07-25T22:18:14.329Z,26.38
2022-07-25T22:22:16.300Z,26.35
2022-07-25T22:26:20.279Z,26.15
2022-07-25T22:30:22.288Z,25.98
2022-07-25T22:34:24.100Z,25.95
2022-07-25T22:38:33.298Z,25.93
2022-07-25T22:42:42.713Z,25.84
2022-07-25T22:46:44.591Z,25.67
2022-07-25T22:50:46.689Z,25.63
2022-07-25T22:54:50.455Z,25.62
2022-07-25T22:58:52.643Z,25.58
2022-07-25T23:02:57.615Z,25.60
2022-07-25T23:07:00.904Z,25.57
2022-07-25T23:11:03.655Z,25.49
2022-07-25T23:15:05.879Z,25.37
2022-07-25T23:19:08.185Z,25.17
2022-07-25T23:23:10.992Z,24.98
2022-07-25T23:27:14.321Z,24.65
2022-07-25T23:31:16.234Z,24.50
2022-07-25T23:35:20.793Z,24.44
2022-07-25T23:39:22.686Z,24.56
2022-07-25T23:43:48.289Z,24.54
2022-07-25T23:47:47.358Z,24.53
2022-07-25T23:51:50.712Z,24.64
2022-07-25T23:55:52.556Z,24.63
2022-07-25T23:59:54.663Z,24.56
